Time;durP1;ratioP1;P1;durP2;ratioP2;P2;SDS_P1;SDS_P2;PMS_P1;PMS_P2;Temp;Humidity;BMP_temperature;BMP_pressure;BME280_temperature;BME280_humidity;BME280_pressure;Samples;Min_cycle;Max_cycle;Signal;HPM_P1;HPM_P2
2022/09/14 00:01:08;;;;;;;5.40;1.77;;;12.10;99.90;;;;;;5069804;28;20516;-51
2022/09/14 00:03:34;;;;;;;6.53;2.40;;;12.10;99.90;;;;;;5069694;28;21909;-51
2022/09/14 00:06:05;;;;;;;4.63;1.90;;;12.10;99.90;;;;;;5068057;28;20496;-50
2022/09/14 00:08:32;;;;;;;5.03;2.10;;;12.10;99.90;;;;;;5068178;28;20495;-52
2022/09/14 00:11:03;;;;;;;11.70;1.80;;;12.00;99.90;;;;;;5068960;28;20941;-51
2022/09/14 00:13:30;;;;;;;9.33;1.70;;;12.00;99.90;;;;;;5068342;28;20529;-52
2022/09/14 00:15:56;;;;;;;8.67;2.20;;;12.00;99.40;;;;;;5068472;28;20543;-50
2022/09/14 00:18:23;;;;;;;3.50;1.50;;;12.00;99.90;;;;;;5070110;28;20998;-51
2022/09/14 00:20:50;;;;;;;1.90;1.13;;;12.00;99.90;;;;;;5066290;28;20477;-51
2022/09/14 00:23:18;;;;;;;5.40;1.43;;;11.90;99.90;;;;;;5069975;28;20512;-51
2022/09/14 00:25:44;;;;;;;1.80;1.30;;;11.90;99.90;;;;;;5067083;28;20485;-51
2022/09/14 00:28:11;;;;;;;3.03;1.50;;;12.00;99.90;;;;;;5068482;28;20492;-51
2022/09/14 00:30:42;;;;;;;3.30;1.40;;;12.00;91.00;;;;;;5069245;28;20826;-51
2022/09/14 00:33:09;;;;;;;1.60;1.47;;;12.00;99.90;;;;;;5065838;28;20481;-51
2022/09/14 00:35:36;;;;;;;3.93;1.67;;;11.90;99.30;;;;;;5066857;28;22556;-50
2022/09/14 00:38:02;;;;;;;3.00;1.70;;;11.90;99.90;;;;;;5070106;28;20986;-51
2022/09/14 00:40:30;;;;;;;4.27;1.80;;;11.90;99.90;;;;;;5068984;28;20524;-50
2022/09/14 00:42:57;;;;;;;3.33;1.50;;;11.90;99.90;;;;;;5067056;28;20527;-51
2022/09/14 00:45:25;;;;;;;5.93;2.53;;;11.90;97.80;;;;;;5064414;28;20503;-51
2022/09/14 00:47:55;;;;;;;18.50;2.00;;;11.90;98.60;;;;;;5070254;28;20453;-53
2022/09/14 00:50:22;;;;;;;4.03;1.67;;;11.90;99.90;;;;;;5066935;28;20464;-50
2022/09/14 00:52:50;;;;;;;2.93;1.73;;;11.90;99.90;;;;;;5064839;28;20501;-51
2022/09/14 00:55:22;;;;;;;5.80;1.67;;;11.90;99.90;;;;;;5064693;28;20469;-52
2022/09/14 00:57:53;;;;;;;1.60;1.50;;;11.80;99.90;;;;;;5066455;28;20457;-50
2022/09/14 01:00:23;;;;;;;3.27;1.57;;;11.80;99.90;;;;;;5068845;28;22271;-51
2022/09/14 01:02:50;;;;;;;8.20;1.30;;;11.80;99.90;;;;;;5066640;28;20518;-50
2022/09/14 01:05:17;;;;;;;3.83;1.60;;;11.80;99.90;;;;;;5065527;28;20488;-51
2022/09/14 01:08:04;;;;;;;6.50;1.43;;;11.80;99.90;;;;;;5065913;28;20493;-51
2022/09/14 01:10:43;;;;;;;4.00;1.50;;;11.80;99.10;;;;;;5061381;28;20460;-51
2022/09/14 01:13:27;;;;;;;3.80;1.70;;;11.80;99.90;;;;;;5068428;28;20974;-51
2022/09/14 01:16:00;;;;;;;8.97;1.93;;;11.80;93.70;;;;;;5061023;28;20459;-51
2022/09/14 01:18:29;;;;;;;3.30;2.00;;;11.80;99.90;;;;;;5064328;28;20484;-50
2022/09/14 01:21:01;;;;;;;4.30;1.93;;;11.80;99.50;;;;;;5063010;28;20511;-51
2022/09/14 01:23:36;;;;;;;2.43;1.57;;;11.80;95.20;;;;;;5066559;28;20582;-50
2022/09/14 01:26:31;;;;;;;4.33;1.97;;;11.80;98.80;;;;;;5061310;28;20500;-50
2022/09/14 01:29:06;;;;;;;4.70;1.77;;;11.70;99.30;;;;;;5065844;28;20484;-50
2022/09/14 01:31:38;;;;;;;7.27;1.70;;;11.70;99.90;;;;;;5063721;28;20545;-51
2022/09/14 01:34:10;;;;;;;2.30;1.67;;;11.70;99.90;;;;;;5066513;28;21017;-51
2022/09/14 01:36:39;;;;;;;5.47;1.50;;;11.60;99.90;;;;;;5069203;28;20496;-51
2022/09/14 01:39:07;;;;;;;2.17;1.20;;;11.70;99.90;;;;;;5066642;28;20495;-52
2022/09/14 01:41:35;;;;;;;4.50;1.50;;;11.60;99.90;;;;;;5064933;28;20576;-50
2022/09/14 01:44:08;;;;;;;2.93;1.13;;;11.60;99.90;;;;;;5064253;28;20524;-50
2022/09/14 01:46:39;;;;;;;4.67;1.70;;;11.60;99.90;;;;;;5063953;28;21241;-51
2022/09/14 01:49:11;;;;;;;2.80;1.53;;;11.60;99.90;;;;;;5067139;28;20465;-51
2022/09/14 01:51:44;;;;;;;13.30;2.07;;;11.60;99.90;;;;;;5066930;28;20480;-50
2022/09/14 01:54:16;;;;;;;5.03;1.67;;;11.50;99.90;;;;;;5061943;28;20499;-51
2022/09/14 01:56:49;;;;;;;7.60;2.13;;;11.60;99.90;;;;;;5066995;28;20477;-52
2022/09/14 01:59:21;;;;;;;4.00;1.60;;;11.50;99.90;;;;;;5066502;28;20481;-53
2022/09/14 02:01:52;;;;;;;6.43;2.67;;;11.50;99.90;;;;;;5064795;28;21014;-52
2022/09/14 02:04:26;;;;;;;5.90;1.33;;;11.50;99.90;;;;;;5061458;28;20481;-53
2022/09/14 02:06:52;;;;;;;6.07;1.80;;;11.50;99.90;;;;;;5064819;28;20485;-52
2022/09/14 02:09:25;;;;;;;6.70;2.20;;;11.50;99.90;;;;;;5065083;28;20460;-52
2022/09/14 02:11:52;;;;;;;9.67;2.60;;;11.60;99.00;;;;;;5064332;28;20472;-53
2022/09/14 02:14:21;;;;;;;4.20;1.80;;;11.50;99.90;;;;;;5064271;28;20487;-53
2022/09/14 02:16:47;;;;;;;5.30;1.90;;;11.50;99.90;;;;;;5068776;28;20496;-53
2022/09/14 02:19:14;;;;;;;5.27;2.10;;;11.50;99.90;;;;;;5069358;28;20504;-52
2022/09/14 02:21:41;;;;;;;7.50;2.47;;;11.50;99.90;;;;;;5065245;28;20502;-52
2022/09/14 02:24:09;;;;;;;4.33;1.47;;;11.50;99.90;;;;;;5064024;28;20504;-52
2022/09/14 02:26:36;;;;;;;3.47;1.70;;;11.50;99.90;;;;;;5066438;28;20512;-53
2022/09/14 02:29:03;;;;;;;5.27;2.00;;;11.60;99.90;;;;;;5067562;28;20533;-53
2022/09/14 02:31:40;;;;;;;8.00;1.60;;;11.60;99.90;;;;;;5065045;28;20958;-52
2022/09/14 02:34:12;;;;;;;8.80;1.57;;;11.60;99.90;;;;;;5063312;28;20531;-52
2022/09/14 02:36:48;;;;;;;7.67;1.60;;;11.60;99.90;;;;;;5067673;28;20457;-52
2022/09/14 02:39:27;;;;;;;7.37;2.10;;;11.60;99.90;;;;;;5067783;28;20990;-52
2022/09/14 02:42:02;;;;;;;5.20;2.80;;;11.60;99.90;;;;;;5062268;28;20516;-53
2022/09/14 02:44:35;;;;;;;4.47;2.17;;;11.60;99.90;;;;;;5061307;28;20527;-52
2022/09/14 02:47:11;;;;;;;6.53;1.83;;;11.50;99.90;;;;;;5064663;28;20492;-53
2022/09/14 02:49:46;;;;;;;4.27;1.80;;;11.50;99.90;;;;;;5062861;28;21020;-52
2022/09/14 02:52:16;;;;;;;7.83;2.00;;;11.50;99.90;;;;;;5069747;28;20492;-53
2022/09/14 02:54:48;;;;;;;5.50;2.10;;;11.60;99.90;;;;;;5062366;28;21222;-52
2022/09/14 02:57:14;;;;;;;4.43;1.73;;;11.60;99.90;;;;;;5065577;28;20461;-53
2022/09/14 02:59:41;;;;;;;2.90;1.73;;;11.60;99.90;;;;;;5059487;28;20550;-53
2022/09/14 03:02:09;;;;;;;3.27;1.60;;;11.60;99.90;;;;;;5060136;28;20530;-53
2022/09/14 03:04:36;;;;;;;3.27;1.60;;;11.50;99.90;;;;;;5063786;28;22162;-52
2022/09/14 03:07:02;;;;;;;6.13;1.90;;;11.50;99.90;;;;;;5068818;28;20519;-52
2022/09/14 03:09:29;;;;;;;15.60;1.73;;;11.50;99.90;;;;;;5065064;28;20974;-54
2022/09/14 03:11:55;;;;;;;7.40;2.43;;;11.50;99.90;;;;;;5065288;28;20495;-53
2022/09/14 03:14:22;;;;;;;4.93;2.30;;;11.50;99.90;;;;;;5060974;28;20508;-53
2022/09/14 03:16:48;;;;;;;10.00;2.23;;;11.50;99.10;;;;;;5066254;28;20457;-53
2022/09/14 03:19:17;;;;;;;3.40;2.00;;;11.50;99.00;;;;;;5066338;28;20965;-52
2022/09/14 03:21:43;;;;;;;7.07;2.13;;;11.60;98.70;;;;;;5066886;28;20581;-52
2022/09/14 03:24:10;;;;;;;7.83;2.47;;;11.60;99.50;;;;;;5064764;28;20487;-53
2022/09/14 03:26:37;;;;;;;3.17;1.57;;;11.60;99.90;;;;;;5067773;28;20507;-53
2022/09/14 03:29:05;;;;;;;3.40;1.70;;;11.60;99.90;;;;;;5063452;28;20464;-53
2022/09/14 03:31:32;;;;;;;11.43;2.50;;;11.50;99.90;;;;;;5061622;28;20557;-53
2022/09/14 03:34:00;;;;;;;4.10;2.13;;;11.50;99.90;;;;;;5066038;28;20534;-53
2022/09/14 03:36:30;;;;;;;9.50;2.10;;;11.60;99.90;;;;;;5065885;28;20503;-52
2022/09/14 03:39:00;;;;;;;4.03;1.73;;;11.60;99.90;;;;;;5063761;28;20982;-52
2022/09/14 03:41:27;;;;;;;5.20;2.20;;;11.50;99.90;;;;;;5065550;28;20583;-53
2022/09/14 03:43:54;;;;;;;7.43;1.70;;;11.50;99.90;;;;;;5060614;28;20523;-53
2022/09/14 03:46:22;;;;;;;3.03;1.23;;;11.40;99.90;;;;;;5065125;28;20557;-52
2022/09/14 03:48:50;;;;;;;3.77;1.60;;;11.40;99.90;;;;;;5063693;28;20469;-52
2022/09/14 03:51:17;;;;;;;6.03;1.70;;;11.40;99.90;;;;;;5061975;28;20493;-52
2022/09/14 03:53:45;;;;;;;4.03;1.63;;;11.30;99.90;;;;;;5062501;28;20971;-52
2022/09/14 03:56:15;;;;;;;4.13;2.27;;;11.40;99.90;;;;;;5066161;28;20554;-52
2022/09/14 03:58:42;;;;;;;3.23;1.60;;;11.30;99.90;;;;;;5066937;28;20464;-52
2022/09/14 04:01:10;;;;;;;7.37;3.37;;;11.30;99.90;;;;;;5067863;28;20829;-52
2022/09/14 04:03:37;;;;;;;3.10;1.93;;;11.40;99.90;;;;;;5061588;28;20519;-52
2022/09/14 04:06:05;;;;;;;5.43;1.80;;;11.30;99.90;;;;;;5073479;28;20549;-52
2022/09/14 04:08:32;;;;;;;18.40;2.10;;;11.30;99.90;;;;;;5069511;28;21056;-52
2022/09/14 04:11:00;;;;;;;4.00;1.70;;;11.30;99.90;;;;;;5069845;28;20459;-50
2022/09/14 04:13:27;;;;;;;3.40;1.50;;;11.30;99.90;;;;;;5062538;28;20530;-51
2022/09/14 04:15:57;;;;;;;5.43;1.50;;;11.30;99.90;;;;;;5071190;28;20500;-50
2022/09/14 04:18:24;;;;;;;1.40;1.30;;;11.20;99.90;;;;;;5069926;28;20488;-50
2022/09/14 04:20:56;;;;;;;5.20;2.20;;;11.20;99.90;;;;;;5061412;28;20481;-51
2022/09/14 04:23:22;;;;;;;9.10;2.13;;;11.30;99.90;;;;;;5067321;28;20488;-51
2022/09/14 04:25:49;;;;;;;2.53;1.53;;;11.20;99.90;;;;;;5060694;28;20494;-50
2022/09/14 04:28:18;;;;;;;3.17;1.47;;;11.20;99.90;;;;;;5067327;28;20523;-50
2022/09/14 04:30:44;;;;;;;6.00;1.63;;;11.20;99.90;;;;;;5070718;28;21022;-50
2022/09/14 04:33:11;;;;;;;12.00;2.20;;;11.20;99.90;;;;;;5068775;28;20504;-51
2022/09/14 04:35:37;;;;;;;4.90;2.00;;;11.20;99.90;;;;;;5065545;28;20519;-50
2022/09/14 04:38:04;;;;;;;4.13;1.80;;;11.20;99.90;;;;;;5067917;28;20519;-51
2022/09/14 04:40:31;;;;;;;3.00;2.00;;;11.30;99.90;;;;;;5067247;28;20459;-51
2022/09/14 04:42:57;;;;;;;6.57;2.00;;;11.30;99.90;;;;;;5066443;28;20520;-51
2022/09/14 04:45:25;;;;;;;4.47;2.40;;;11.20;99.90;;;;;;5064151;28;20586;-51
2022/09/14 04:47:53;;;;;;;4.93;2.03;;;11.30;99.90;;;;;;5069362;28;20514;-50
2022/09/14 04:50:20;;;;;;;6.03;2.07;;;11.20;99.90;;;;;;5063227;28;20457;-50
2022/09/14 04:52:46;;;;;;;4.70;2.00;;;11.20;99.90;;;;;;5066867;28;20551;-50
2022/09/14 04:55:13;;;;;;;2.50;1.90;;;11.30;99.90;;;;;;5065393;28;20489;-50
2022/09/14 04:57:40;;;;;;;5.50;2.27;;;11.20;99.90;;;;;;5064822;28;20457;-51
2022/09/14 05:00:08;;;;;;;9.93;2.20;;;11.30;99.90;;;;;;5064731;28;20556;-51
2022/09/14 05:02:40;;;;;;;9.60;2.63;;;11.20;99.90;;;;;;5066381;28;20489;-50
2022/09/14 05:05:07;;;;;;;2.57;1.70;;;11.20;99.90;;;;;;5069837;28;20517;-50
2022/09/14 05:07:34;;;;;;;5.63;1.73;;;11.20;99.90;;;;;;5062958;28;20506;-50
2022/09/14 05:10:01;;;;;;;3.70;2.03;;;11.30;99.90;;;;;;5066200;28;20496;-50
2022/09/14 05:12:29;;;;;;;5.40;1.57;;;11.30;99.90;;;;;;5065310;28;20542;-50
2022/09/14 05:14:55;;;;;;;3.80;1.60;;;11.30;99.70;;;;;;5066168;28;20535;-50
2022/09/14 05:17:22;;;;;;;4.33;1.90;;;11.30;98.10;;;;;;5067818;28;20556;-50
2022/09/14 05:19:50;;;;;;;5.57;1.60;;;11.30;97.40;;;;;;5059019;28;20545;-50
2022/09/14 05:22:17;;;;;;;10.40;2.67;;;11.40;95.70;;;;;;5065901;28;21022;-50
2022/09/14 05:24:43;;;;;;;4.33;1.70;;;11.40;96.60;;;;;;5060868;28;20505;-50
2022/09/14 05:27:10;;;;;;;3.80;1.63;;;11.40;96.50;;;;;;5065397;28;20501;-51
2022/09/14 05:29:39;;;;;;;6.60;2.87;;;11.40;96.10;;;;;;5068386;28;21009;-49
2022/09/14 05:32:05;;;;;;;4.95;1.50;;;11.50;92.50;;;;;;5071044;28;20437;-51
2022/09/14 05:34:32;;;;;;;3.63;2.30;;;11.50;92.90;;;;;;5071494;28;20735;-50
2022/09/14 05:37:00;;;;;;;4.80;2.07;;;11.50;91.30;;;;;;5066257;28;20483;-51
2022/09/14 05:39:26;;;;;;;11.17;2.30;;;11.60;90.90;;;;;;5065926;28;20484;-51
2022/09/14 05:41:53;;;;;;;3.33;1.60;;;11.60;91.20;;;;;;5067424;28;20513;-51
2022/09/14 05:44:19;;;;;;;5.27;1.87;;;11.60;91.00;;;;;;5072660;28;20516;-51
2022/09/14 05:46:46;;;;;;;5.93;2.20;;;11.70;91.20;;;;;;5069337;28;20465;-51
2022/09/14 05:49:13;;;;;;;8.10;2.20;;;11.70;94.20;;;;;;5072726;28;20460;-51
2022/09/14 05:51:39;;;;;;;5.17;2.00;;;11.60;93.40;;;;;;5075568;28;20452;-51
2022/09/14 05:54:10;;;;;;;5.20;2.60;;;11.70;95.00;;;;;;5063123;28;20500;-51
2022/09/14 05:56:37;;;;;;;4.27;2.10;;;11.70;93.80;;;;;;5063514;28;20467;-51
2022/09/14 05:59:03;;;;;;;5.17;1.80;;;11.70;93.00;;;;;;5063540;28;20951;-51
2022/09/14 06:01:32;;;;;;;5.70;2.50;;;11.80;92.60;;;;;;5064410;28;20990;-51
2022/09/14 06:04:01;;;;;;;5.50;1.80;;;11.90;94.00;;;;;;5064889;28;21074;-51
2022/09/14 06:06:29;;;;;;;3.43;2.00;;;12.00;99.00;;;;;;5068263;28;20951;-51
2022/09/14 06:08:56;;;;;;;6.53;2.20;;;12.00;99.20;;;;;;5066678;28;20460;-50
2022/09/14 06:11:27;;;;;;;5.20;1.87;;;12.00;99.90;;;;;;5062635;28;20462;-51
2022/09/14 06:13:54;;;;;;;8.80;1.83;;;12.00;99.90;;;;;;5063957;28;20473;-51
2022/09/14 06:16:22;;;;;;;6.07;2.30;;;12.10;99.90;;;;;;5066721;28;20456;-51
2022/09/14 06:18:49;;;;;;;3.73;2.00;;;12.10;99.90;;;;;;5068648;28;20495;-50
2022/09/14 06:21:18;;;;;;;12.60;2.00;;;12.20;99.90;;;;;;5063613;28;20492;-51
2022/09/14 06:23:45;;;;;;;2.43;1.47;;;12.20;99.90;;;;;;5063694;28;20480;-51
2022/09/14 06:26:12;;;;;;;4.90;2.43;;;12.30;99.90;;;;;;5065093;28;20489;-51
2022/09/14 06:28:40;;;;;;;7.90;2.40;;;12.40;99.90;;;;;;5068291;28;20499;-51
2022/09/14 06:31:08;;;;;;;5.73;2.30;;;12.40;99.90;;;;;;5063641;28;21035;-51
2022/09/14 06:33:35;;;;;;;3.33;1.60;;;12.50;99.90;;;;;;5065635;28;22572;-51
2022/09/14 06:36:06;;;;;;;7.63;2.10;;;12.50;99.90;;;;;;5067429;28;20492;-51
2022/09/14 06:38:33;;;;;;;5.30;2.53;;;12.60;99.90;;;;;;5068291;28;20475;-51
2022/09/14 06:41:03;;;;;;;4.53;1.90;;;12.60;99.90;;;;;;5067229;28;20493;-51
2022/09/14 06:43:32;;;;;;;3.17;1.83;;;12.60;99.90;;;;;;5067811;28;20488;-51
2022/09/14 06:46:03;;;;;;;6.27;2.10;;;12.70;99.90;;;;;;5066688;28;20499;-51
2022/09/14 06:48:32;;;;;;;6.23;1.87;;;12.70;99.90;;;;;;5064723;28;20500;-52
2022/09/14 06:50:59;;;;;;;5.53;2.03;;;12.80;99.90;;;;;;5063301;28;20457;-51
2022/09/14 06:53:26;;;;;;;6.47;1.93;;;12.90;99.90;;;;;;5065669;28;20526;-50
2022/09/14 06:55:53;;;;;;;8.33;2.30;;;13.00;99.90;;;;;;5063956;28;20530;-51
2022/09/14 06:58:19;;;;;;;10.93;2.37;;;13.00;99.90;;;;;;5063098;28;20499;-51
2022/09/14 07:00:46;;;;;;;7.30;1.80;;;13.10;99.90;;;;;;5065108;28;20488;-50
2022/09/14 07:03:14;;;;;;;8.33;2.40;;;13.20;99.90;;;;;;5066141;28;20539;-52
2022/09/14 07:05:40;;;;;;;7.67;1.80;;;13.20;99.90;;;;;;5064488;28;20527;-51
2022/09/14 07:08:07;;;;;;;7.60;1.40;;;13.30;99.90;;;;;;5066134;28;20500;-50
2022/09/14 07:10:33;;;;;;;10.73;2.20;;;13.30;99.90;;;;;;5060849;28;20484;-51
2022/09/14 07:13:00;;;;;;;7.23;2.60;;;13.40;99.90;;;;;;5065479;28;21057;-52
2022/09/14 07:15:27;;;;;;;12.27;2.63;;;13.50;99.90;;;;;;5065723;28;20551;-51
2022/09/14 07:17:53;;;;;;;4.83;1.80;;;13.60;99.90;;;;;;5062733;28;20994;-52
2022/09/14 07:20:21;;;;;;;9.83;2.30;;;13.70;99.90;;;;;;5067927;28;20974;-51
2022/09/14 07:22:48;;;;;;;7.00;2.20;;;13.80;99.90;;;;;;5066130;28;20570;-51
2022/09/14 07:25:14;;;;;;;4.73;1.90;;;13.90;99.90;;;;;;5063531;28;20491;-51
2022/09/14 07:27:41;;;;;;;12.70;2.90;;;14.00;99.90;;;;;;5065731;28;20550;-51
2022/09/14 07:30:09;;;;;;;5.90;2.10;;;14.10;99.90;;;;;;5066826;28;20500;-51
2022/09/14 07:32:35;;;;;;;6.60;1.70;;;14.10;99.90;;;;;;5065709;28;20518;-51
2022/09/14 07:35:02;;;;;;;5.40;2.13;;;14.20;99.90;;;;;;5071744;28;20477;-50
2022/09/14 07:37:30;;;;;;;8.63;2.30;;;14.30;99.90;;;;;;5071162;28;20894;-50
2022/09/14 07:39:57;;;;;;;6.00;2.70;;;14.40;99.90;;;;;;5064673;28;20484;-51
2022/09/14 07:42:23;;;;;;;9.77;2.40;;;14.50;99.90;;;;;;5070989;28;20481;-51
2022/09/14 07:44:50;;;;;;;9.20;2.77;;;14.60;99.90;;;;;;5070375;28;20516;-51
2022/09/14 07:47:17;;;;;;;14.00;2.63;;;14.70;90.30;;;;;;5068687;28;20461;-51
2022/09/14 07:49:43;;;;;;;9.60;2.40;;;14.80;81.40;;;;;;5068723;28;20516;-50
2022/09/14 07:52:10;;;;;;;10.33;2.00;;;14.80;25.50;;;;;;5069852;28;20499;-50
2022/09/14 07:54:38;;;;;;;10.50;2.60;;;14.90;23.60;;;;;;5066708;28;20844;-51
2022/09/14 07:57:05;;;;;;;5.93;2.27;;;14.90;34.20;;;;;;5069862;28;21039;-52
2022/09/14 07:59:31;;;;;;;11.20;2.53;;;14.90;41.90;;;;;;5069123;28;20485;-51
2022/09/14 08:01:58;;;;;;;7.87;2.60;;;14.90;52.00;;;;;;5067176;28;20489;-51
2022/09/14 08:04:25;;;;;;;10.00;2.10;;;14.90;54.20;;;;;;5065578;28;20504;-51
2022/09/14 08:06:51;;;;;;;13.63;2.30;;;15.00;56.20;;;;;;5064831;28;20898;-51
2022/09/14 08:09:18;;;;;;;9.80;2.40;;;15.00;59.00;;;;;;5070179;28;20554;-51
2022/09/14 08:11:46;;;;;;;7.50;2.10;;;15.10;75.20;;;;;;5063917;28;20460;-51
2022/09/14 08:14:14;;;;;;;7.10;1.80;;;15.10;72.30;;;;;;5069607;28;20530;-51
2022/09/14 08:16:41;;;;;;;6.47;2.13;;;15.20;71.00;;;;;;5068521;28;20449;-52
2022/09/14 08:19:12;;;;;;;9.00;2.90;;;15.30;78.40;;;;;;5069731;28;20489;-51
2022/09/14 08:21:38;;;;;;;8.23;1.80;;;15.30;78.30;;;;;;5068995;28;20480;-51
2022/09/14 08:24:05;;;;;;;7.50;2.20;;;15.40;85.70;;;;;;5064617;28;20524;-52
2022/09/14 08:26:35;;;;;;;10.40;2.47;;;15.40;99.90;;;;;;5067300;28;20492;-52
2022/09/14 08:29:03;;;;;;;15.43;2.47;;;15.50;99.90;;;;;;5064812;28;20475;-51
2022/09/14 08:31:31;;;;;;;6.20;1.80;;;15.50;99.90;;;;;;5069115;28;20972;-52
2022/09/14 08:33:59;;;;;;;9.40;1.93;;;15.60;99.90;;;;;;5072597;28;20473;-52
2022/09/14 08:36:28;;;;;;;4.53;1.97;;;15.70;99.90;;;;;;5068880;28;20475;-53
2022/09/14 08:38:55;;;;;;;5.30;1.80;;;15.80;99.90;;;;;;5073912;28;20496;-51
2022/09/14 08:41:28;;;;;;;9.43;2.77;;;15.90;99.90;;;;;;5071369;28;20496;-52
2022/09/14 08:43:55;;;;;;;10.10;2.37;;;15.90;99.90;;;;;;5068016;28;20513;-51
2022/09/14 08:46:33;;;;;;;8.07;2.30;;;16.00;99.90;;;;;;5068081;28;20489;-52
2022/09/14 08:49:03;;;;;;;7.70;2.00;;;15.90;99.90;;;;;;5068956;28;20563;-50
2022/09/14 08:51:30;;;;;;;7.57;2.33;;;16.00;99.90;;;;;;5067414;28;20989;-51
2022/09/14 08:53:59;;;;;;;9.83;3.60;;;16.00;99.90;;;;;;5058978;28;20512;-51
2022/09/14 08:56:31;;;;;;;13.93;2.10;;;16.00;99.90;;;;;;5064952;28;20972;-50
2022/09/14 08:59:16;;;;;;;4.83;1.93;;;16.10;99.90;;;;;;5067974;28;20456;-50
2022/09/14 09:01:52;;;;;;;8.30;2.00;;;16.10;99.90;;;;;;5064766;28;20449;-51
2022/09/14 09:04:36;;;;;;;9.50;2.23;;;16.10;99.90;;;;;;5071473;28;20519;-51
2022/09/14 09:07:10;;;;;;;7.47;2.17;;;16.10;99.90;;;;;;5073050;28;20501;-51
2022/09/14 09:09:43;;;;;;;9.60;2.30;;;16.10;99.90;;;;;;5070907;28;20517;-51
2022/09/14 09:12:14;;;;;;;4.40;2.10;;;16.10;99.90;;;;;;5070986;28;20461;-51
2022/09/14 09:14:44;;;;;;;12.60;2.23;;;16.20;99.90;;;;;;5070507;28;20888;-51
2022/09/14 09:17:16;;;;;;;6.57;2.20;;;16.20;99.90;;;;;;5068611;28;20499;-51
2022/09/14 09:19:53;;;;;;;9.17;3.27;;;16.30;99.90;;;;;;5066688;28;20504;-51
2022/09/14 09:22:23;;;;;;;8.13;1.70;;;16.30;99.90;;;;;;5060505;28;20492;-51
2022/09/14 09:24:53;;;;;;;5.50;2.13;;;16.30;99.90;;;;;;5064544;28;20504;-51
2022/09/14 09:27:20;;;;;;;13.60;2.70;;;16.30;99.90;;;;;;5065931;28;20512;-52
2022/09/14 09:29:46;;;;;;;9.87;2.63;;;16.40;99.90;;;;;;5068582;28;20896;-51
2022/09/14 09:32:17;;;;;;;14.33;2.60;;;16.50;99.90;;;;;;5065811;28;20489;-51
2022/09/14 09:34:44;;;;;;;15.40;2.60;;;16.70;90.10;;;;;;5067643;28;20508;-52
2022/09/14 09:37:14;;;;;;;4.63;1.77;;;16.80;99.90;;;;;;5071301;28;20476;-50
2022/09/14 09:39:41;;;;;;;12.03;3.80;;;16.80;99.90;;;;;;5069754;28;20500;-51
2022/09/14 09:42:14;;;;;;;10.37;2.30;;;16.80;99.90;;;;;;5067770;28;20550;-51
2022/09/14 09:44:54;;;;;;;10.23;2.67;;;16.80;90.00;;;;;;5065339;28;20492;-51
2022/09/14 09:47:32;;;;;;;4.77;1.53;;;16.70;99.90;;;;;;5070778;28;20461;-51
2022/09/14 09:50:01;;;;;;;6.00;1.97;;;16.70;99.90;;;;;;5071036;28;20958;-50
2022/09/14 09:52:29;;;;;;;10.90;2.07;;;16.70;99.90;;;;;;5067618;28;20544;-51
2022/09/14 09:54:57;;;;;;;9.43;2.13;;;16.80;73.60;;;;;;5070225;28;20529;-51
2022/09/14 09:57:29;;;;;;;3.27;1.70;;;16.80;23.10;;;;;;5069195;28;20812;-51
2022/09/14 10:00:12;;;;;;;6.70;2.40;;;16.70;37.50;;;;;;5070175;28;20481;-52
2022/09/14 10:02:40;;;;;;;4.77;1.60;;;16.70;32.10;;;;;;5068760;28;20449;-52
2022/09/14 10:05:20;;;;;;;9.07;2.60;;;16.90;30.30;;;;;;5070418;28;20897;-51
2022/09/14 10:07:54;;;;;;;8.00;2.13;;;17.00;36.30;;;;;;5065043;28;20444;-50
2022/09/14 10:10:26;;;;;;;3.77;1.50;;;17.30;40.50;;;;;;5070308;28;20550;-50
2022/09/14 10:12:55;;;;;;;9.93;2.67;;;17.20;50.40;;;;;;5067987;28;20449;-50
2022/09/14 10:15:24;;;;;;;15.43;2.60;;;17.30;40.80;;;;;;5063841;28;20489;-51
2022/09/14 10:18:07;;;;;;;9.77;1.77;;;17.50;51.70;;;;;;5070393;28;20942;-50
2022/09/14 10:20:35;;;;;;;5.60;2.20;;;17.50;74.30;;;;;;5071083;28;20805;-50
2022/09/14 10:23:21;;;;;;;7.70;2.13;;;17.40;65.90;;;;;;5067112;28;20527;-51
2022/09/14 10:25:50;;;;;;;5.83;2.13;;;17.40;68.70;;;;;;5070739;28;20465;-50
2022/09/14 10:28:23;;;;;;;8.73;2.60;;;17.30;81.80;;;;;;5067586;28;20495;-51
2022/09/14 10:30:54;;;;;;;3.47;1.53;;;17.30;72.70;;;;;;5068123;28;20437;-50
2022/09/14 10:33:22;;;;;;;14.30;2.70;;;17.30;72.90;;;;;;5066587;28;20481;-52
2022/09/14 10:35:54;;;;;;;7.00;2.00;;;17.30;72.10;;;;;;5070825;28;20492;-51
2022/09/14 10:38:33;;;;;;;6.57;1.80;;;17.30;74.70;;;;;;5071576;28;20500;-51
2022/09/14 10:41:10;;;;;;;5.07;1.90;;;17.40;61.00;;;;;;5069858;28;20500;-51
2022/09/14 10:43:48;;;;;;;4.60;2.07;;;17.40;61.20;;;;;;5070186;28;20484;-50
2022/09/14 10:46:21;;;;;;;8.07;1.90;;;17.30;81.30;;;;;;5071278;28;20976;-50
2022/09/14 10:49:10;;;;;;;7.63;1.80;;;17.20;76.90;;;;;;5067041;28;20467;-51
2022/09/14 10:51:49;;;;;;;12.50;3.73;;;17.20;73.70;;;;;;5070777;28;20445;-50
2022/09/14 10:54:46;;;;;;;8.63;2.10;;;17.30;69.00;;;;;;5071876;28;20869;-50
2022/09/14 10:57:19;;;;;;;19.00;2.40;;;17.30;82.40;;;;;;5069833;28;20511;-52
2022/09/14 10:59:52;;;;;;;6.13;2.00;;;17.30;79.30;;;;;;5071508;28;20469;-50
2022/09/14 11:02:34;;;;;;;5.70;2.50;;;17.20;79.00;;;;;;5065041;28;20489;-51
2022/09/14 11:05:11;;;;;;;4.43;1.43;;;17.30;80.30;;;;;;5065372;28;20517;-51
2022/09/14 11:07:47;;;;;;;4.70;1.60;;;17.30;77.30;;;;;;5063325;28;20475;-51
2022/09/14 11:10:20;;;;;;;9.97;2.27;;;17.30;72.20;;;;;;5073616;28;20484;-50
2022/09/14 11:12:57;;;;;;;11.30;2.20;;;17.30;70.90;;;;;;5071515;28;20876;-51
2022/09/14 11:15:29;;;;;;;3.80;1.47;;;17.40;75.80;;;;;;5074157;28;20515;-51
2022/09/14 11:18:18;;;;;;;7.57;1.70;;;17.50;76.50;;;;;;5069701;28;20516;-50
2022/09/14 11:20:58;;;;;;;4.77;1.90;;;17.60;94.30;;;;;;5077076;28;20460;-51
2022/09/14 11:23:36;;;;;;;6.37;2.20;;;17.70;75.30;;;;;;5078703;28;20484;-51
2022/09/14 11:26:09;;;;;;;3.30;1.77;;;17.80;93.10;;;;;;5073054;28;20465;-50
2022/09/14 11:28:42;;;;;;;7.10;1.70;;;17.80;99.50;;;;;;5073461;28;20484;-51
2022/09/14 11:31:13;;;;;;;5.93;1.97;;;17.90;99.90;;;;;;5070359;28;21618;-51
2022/09/14 11:33:46;;;;;;;4.50;1.70;;;17.90;99.90;;;;;;5065588;28;20501;-52
2022/09/14 11:36:19;;;;;;;4.63;2.00;;;18.00;93.00;;;;;;5073323;28;20485;-52
2022/09/14 11:38:51;;;;;;;6.20;1.67;;;18.00;97.30;;;;;;5069496;28;20493;-51
2022/09/14 11:41:24;;;;;;;8.07;2.17;;;18.00;99.90;;;;;;5068728;28;20526;-51
2022/09/14 11:43:57;;;;;;;11.03;1.67;;;17.90;99.90;;;;;;5070649;28;20523;-52
2022/09/14 11:46:30;;;;;;;3.17;1.50;;;17.90;99.90;;;;;;5071340;28;21321;-51
2022/09/14 11:49:05;;;;;;;6.20;1.80;;;17.90;99.90;;;;;;5066309;28;20495;-51
2022/09/14 11:51:36;;;;;;;5.63;1.80;;;17.90;99.50;;;;;;5073128;28;20475;-51
2022/09/14 11:54:09;;;;;;;7.63;2.00;;;17.90;91.30;;;;;;5070785;28;20516;-51
2022/09/14 11:56:36;;;;;;;9.50;2.13;;;17.70;96.50;;;;;;5072836;28;20484;-51
2022/09/14 11:59:06;;;;;;;5.93;1.60;;;17.80;99.40;;;;;;5069741;28;20489;-50
2022/09/14 12:01:35;;;;;;;5.13;1.30;;;17.80;98.30;;;;;;5069662;28;20481;-51
2022/09/14 12:04:21;;;;;;;6.67;3.23;;;17.80;98.90;;;;;;5065693;28;20520;-52
2022/09/14 12:06:54;;;;;;;7.97;1.83;;;17.90;93.50;;;;;;5064565;28;20460;-51
2022/09/14 12:09:53;;;;;;;11.80;1.93;;;17.90;85.60;;;;;;5061487;28;20521;-51
2022/09/14 12:12:37;;;;;;;6.33;1.93;;;17.90;99.90;;;;;;5065768;28;20460;-52
2022/09/14 12:15:21;;;;;;;6.77;1.40;;;17.80;96.80;;;;;;5058893;28;20533;-51
2022/09/14 12:17:48;;;;;;;4.47;1.33;;;17.70;98.10;;;;;;5068459;28;20535;-52
2022/09/14 12:20:37;;;;;;;8.63;2.43;;;17.70;93.90;;;;;;5068286;28;20523;-52
2022/09/14 12:23:20;;;;;;;3.70;1.87;;;17.60;93.70;;;;;;5068472;28;20867;-51
2022/09/14 12:26:37;;;;;;;3.10;1.50;;;17.50;86.80;;;;;;5064413;28;20453;-51
2022/09/14 12:29:31;;;;;;;1.40;1.30;;;17.50;87.90;;;;;;5059651;28;20456;-53
2022/09/14 12:32:23;;;;;;;4.67;1.90;;;17.50;84.40;;;;;;5053555;28;20493;-53
2022/09/14 12:35:34;;;;;;;9.80;2.00;;;17.50;73.50;;;;;;5071736;28;20520;-53
2022/09/14 12:38:40;;;;;;;7.43;2.60;;;17.50;82.10;;;;;;5069943;28;20479;-54
2022/09/14 12:41:40;;;;;;;7.47;1.80;;;17.50;84.90;;;;;;5070680;28;20496;-53
2022/09/14 12:44:29;;;;;;;7.70;2.70;;;17.60;81.50;;;;;;5072392;28;20485;-53
2022/09/14 12:46:56;;;;;;;4.37;1.90;;;17.50;90.50;;;;;;5065918;28;20959;-53
2022/09/14 12:49:31;;;;;;;3.80;1.70;;;17.50;99.70;;;;;;5072314;28;20876;-54
2022/09/14 12:52:14;;;;;;;10.33;1.70;;;17.60;88.00;;;;;;5072872;28;20444;-53
2022/09/14 12:54:53;;;;;;;6.07;2.07;;;17.60;83.60;;;;;;5072638;28;20491;-53
2022/09/14 12:57:30;;;;;;;8.53;1.37;;;17.70;82.80;;;;;;5072524;28;20493;-53
2022/09/14 13:00:05;;;;;;;14.87;2.00;;;17.80;83.10;;;;;;5069144;28;20461;-54
2022/09/14 13:03:04;;;;;;;9.30;2.37;;;18.00;99.90;;;;;;5064524;28;20531;-53
2022/09/14 13:05:33;;;;;;;7.33;2.03;;;18.00;80.10;;;;;;5068948;28;20481;-53